createdAt,value
2017-11-13T00:00:03.963Z,3.25
2017-11-13T00:02:31.444Z,2.85
2017-11-13T00:04:59.696Z,3.45
2017-11-13T00:07:27.195Z,3.22
2017-11-13T00:09:54.753Z,3.10
2017-11-13T00:12:22.244Z,4.53
2017-11-13T00:14:49.729Z,3.20
2017-11-13T00:17:17.223Z,3.20
2017-11-13T00:19:44.704Z,3.47
2017-11-13T00:22:12.382Z,3.55
2017-11-13T00:24:40.016Z,3.22
2017-11-13T00:27:07.503Z,3.47
2017-11-13T00:29:34.991Z,3.37
2017-11-13T00:32:03.337Z,3.37
2017-11-13T00:34:30.826Z,3.90
2017-11-13T00:36:59.172Z,4.43
2017-11-13T00:39:26.682Z,3.83
2017-11-13T00:41:54.177Z,3.50
2017-11-13T00:44:21.665Z,2.92
2017-11-13T00:46:49.944Z,3.70
2017-11-13T00:49:18.190Z,3.30
2017-11-13T00:51:45.752Z,3.75
2017-11-13T00:54:13.312Z,3.28
2017-11-13T00:56:40.984Z,3.45
2017-11-13T00:59:08.527Z,3.40
2017-11-13T01:01:36.104Z,3.85
2017-11-13T01:04:03.649Z,3.25
2017-11-13T01:06:31.132Z,3.35
2017-11-13T01:08:59.390Z,3.60
2017-11-13T01:11:26.948Z,3.80
2017-11-13T01:13:54.780Z,3.78
2017-11-13T01:16:22.448Z,3.28
2017-11-13T01:18:50.156Z,3.40
2017-11-13T01:21:17.630Z,3.95
2017-11-13T01:23:45.965Z,4.72
2017-11-13T01:26:13.452Z,3.80
2017-11-13T01:28:41.772Z,4.00
2017-11-13T01:31:09.254Z,3.60
2017-11-13T01:33:36.748Z,3.83
2017-11-13T01:36:05.012Z,3.08
2017-11-13T01:38:33.271Z,3.20
2017-11-13T01:41:00.772Z,3.30
2017-11-13T01:43:28.272Z,3.17
2017-11-13T01:45:55.751Z,3.17
2017-11-13T01:48:23.244Z,3.62
2017-11-13T01:50:50.729Z,3.40
2017-11-13T01:53:18.312Z,3.37
2017-11-13T01:55:45.868Z,4.12
2017-11-13T01:58:13.431Z,4.03
2017-11-13T02:00:40.919Z,3.55
2017-11-13T02:03:09.172Z,4.03
2017-11-13T02:05:36.880Z,3.30
2017-11-13T02:08:05.071Z,3.35
2017-11-13T02:10:32.796Z,3.00
2017-11-13T02:13:00.447Z,2.72
2017-11-13T02:15:27.952Z,3.08
2017-11-13T02:17:55.437Z,3.00
2017-11-13T02:20:22.950Z,3.20
2017-11-13T02:22:51.387Z,3.20
2017-11-13T02:25:18.977Z,3.17
2017-11-13T02:27:46.516Z,3.22
2017-11-13T02:30:14.784Z,3.20
2017-11-13T02:32:42.316Z,4.65
2017-11-13T02:35:09.873Z,3.72
2017-11-13T02:37:37.348Z,3.33
2017-11-13T02:40:04.908Z,2.95
2017-11-13T02:42:32.463Z,3.00
2017-11-13T02:45:00.060Z,2.95
2017-11-13T02:47:28.309Z,3.85
2017-11-13T02:49:55.793Z,3.10
2017-11-13T02:52:23.268Z,3.08
2017-11-13T02:54:50.769Z,3.35
2017-11-13T02:57:18.415Z,4.22
2017-11-13T02:59:46.144Z,2.95
2017-11-13T03:02:13.711Z,3.50
2017-11-13T03:04:41.203Z,3.72
2017-11-13T03:07:08.683Z,3.50
2017-11-13T03:09:37.023Z,3.47
2017-11-13T03:12:04.591Z,4.10
2017-11-13T03:14:32.082Z,3.10
2017-11-13T03:17:00.404Z,3.03
2017-11-13T03:19:27.884Z,3.17
2017-11-13T03:21:55.365Z,3.80
2017-11-13T03:24:23.616Z,3.50
2017-11-13T03:26:51.111Z,3.05
2017-11-13T03:29:19.355Z,3.50
2017-11-13T03:31:46.902Z,2.83
2017-11-13T03:34:14.416Z,3.40
2017-11-13T03:36:41.978Z,3.28
2017-11-13T03:39:09.523Z,3.53
2017-11-13T03:41:37.850Z,3.58
2017-11-13T03:44:05.336Z,4.00
2017-11-13T03:46:33.617Z,3.50
2017-11-13T03:49:01.856Z,3.75
2017-11-13T03:51:29.395Z,4.12
2017-11-13T03:53:57.087Z,3.53
2017-11-13T03:56:24.727Z,3.40
2017-11-13T03:58:52.296Z,3.50
2017-11-13T04:01:19.767Z,3.03
2017-11-13T04:03:47.312Z,4.00
2017-11-13T04:06:14.915Z,4.32
2017-11-13T04:08:43.228Z,4.10
2017-11-13T04:11:10.837Z,4.05
2017-11-13T04:13:38.395Z,4.12
2017-11-13T04:16:05.889Z,3.83
2017-11-13T04:18:34.123Z,4.55
2017-11-13T04:21:02.378Z,3.95
2017-11-13T04:23:29.847Z,3.75
2017-11-13T04:25:57.397Z,4.03
2017-11-13T04:28:24.969Z,4.43
2017-11-13T04:30:52.495Z,4.43
2017-11-13T04:33:19.991Z,4.12
2017-11-13T04:35:48.344Z,4.00
2017-11-13T04:38:15.827Z,3.97
2017-11-13T04:40:44.067Z,4.97
2017-11-13T04:43:11.563Z,3.85
2017-11-13T04:45:40.095Z,3.92
2017-11-13T04:48:07.707Z,4.30
2017-11-13T04:50:36.165Z,4.80
2017-11-13T04:53:03.789Z,4.30
2017-11-13T04:55:31.385Z,4.28
2017-11-13T04:57:58.929Z,5.05
2017-11-13T05:00:26.422Z,4.50
2017-11-13T05:02:54.760Z,4.55
2017-11-13T05:05:22.253Z,4.15
2017-11-13T05:07:50.590Z,4.37
2017-11-13T05:10:18.184Z,5.03
2017-11-13T05:12:46.903Z,4.00
2017-11-13T05:15:14.554Z,4.03
2017-11-13T05:17:42.954Z,4.25
2017-11-13T05:20:10.447Z,4.60
2017-11-13T05:22:38.004Z,4.57
2017-11-13T05:25:05.556Z,4.07
2017-11-13T05:27:33.055Z,4.03
2017-11-13T05:30:01.599Z,4.82
2017-11-13T05:32:29.248Z,3.83
2017-11-13T05:34:57.577Z,4.45
2017-11-13T05:37:25.832Z,4.25
2017-11-13T05:39:53.336Z,4.05
2017-11-13T05:42:20.827Z,3.85
2017-11-13T05:44:48.303Z,3.90
2017-11-13T05:47:15.859Z,4.37
2017-11-13T05:49:43.347Z,3.87
2017-11-13T05:52:11.136Z,3.67
2017-11-13T05:54:38.612Z,4.10
2017-11-13T05:57:06.183Z,4.72
2017-11-13T05:59:33.675Z,3.72
2017-11-13T06:02:01.957Z,3.80
2017-11-13T06:04:29.481Z,3.40
2017-11-13T06:06:57.023Z,4.40
2017-11-13T06:09:24.610Z,3.65
2017-11-13T06:11:52.143Z,3.60
2017-11-13T06:14:19.630Z,4.40
2017-11-13T06:16:47.883Z,3.80
2017-11-13T06:19:15.427Z,4.10
2017-11-13T06:21:42.997Z,3.55
2017-11-13T06:24:10.592Z,4.00
2017-11-13T06:26:38.845Z,4.50
2017-11-13T06:29:07.097Z,3.85
2017-11-13T06:31:34.588Z,4.35
2017-11-13T06:34:02.838Z,4.10
2017-11-13T06:36:30.316Z,3.70
2017-11-13T06:38:58.569Z,4.30
2017-11-13T06:41:26.185Z,4.97
2017-11-13T06:43:54.498Z,5.00
2017-11-13T06:46:23.028Z,5.00
2017-11-13T06:48:50.606Z,4.82
2017-11-13T06:51:18.208Z,4.43
2017-11-13T06:53:45.769Z,5.07
2017-11-13T06:56:13.246Z,4.65
2017-11-13T06:58:41.499Z,4.60
2017-11-13T07:01:08.997Z,4.78
2017-11-13T07:03:36.491Z,4.72
2017-11-13T07:06:04.105Z,5.12
2017-11-13T07:08:31.623Z,4.70
2017-11-13T07:10:59.119Z,5.37
2017-11-13T07:13:27.460Z,4.30
2017-11-13T07:15:54.932Z,4.40
2017-11-13T07:18:22.426Z,4.65
2017-11-13T07:20:50.007Z,4.97
2017-11-13T07:23:17.485Z,4.80
2017-11-13T07:25:44.992Z,5.00
2017-11-13T07:28:12.472Z,4.87
2017-11-13T07:30:39.952Z,4.85
2017-11-13T07:33:07.724Z,5.03
2017-11-13T07:35:35.425Z,4.50
2017-11-13T07:38:03.832Z,4.90
2017-11-13T07:40:31.327Z,4.20
2017-11-13T07:42:58.833Z,4.87
2017-11-13T07:45:26.309Z,4.65
2017-11-13T07:47:53.802Z,5.00
2017-11-13T07:50:21.297Z,5.22
2017-11-13T07:52:48.784Z,4.60
2017-11-13T07:55:16.286Z,4.28
2017-11-13T07:57:44.568Z,4.30
2017-11-13T08:00:12.836Z,4.45
2017-11-13T08:02:41.086Z,4.37
2017-11-13T08:05:08.556Z,4.55
2017-11-13T08:07:36.140Z,4.62
2017-11-13T08:10:04.456Z,4.55
2017-11-13T08:12:32.007Z,4.15
2017-11-13T08:14:59.501Z,4.00
2017-11-13T08:17:26.988Z,4.28
2017-11-13T08:19:55.248Z,3.78
2017-11-13T08:22:22.737Z,4.18
2017-11-13T08:24:50.987Z,4.40
2017-11-13T08:27:19.331Z,4.45
2017-11-13T08:29:47.855Z,3.53
2017-11-13T08:32:16.201Z,4.00
2017-11-13T08:34:43.830Z,5.03
2017-11-13T08:37:11.365Z,3.53
2017-11-13T08:39:38.895Z,4.70
2017-11-13T08:42:06.430Z,4.00
2017-11-13T08:44:33.900Z,4.37
2017-11-13T08:47:01.423Z,3.70
2017-11-13T08:49:29.048Z,3.70
2017-11-13T08:51:56.578Z,4.25
2017-11-13T08:54:24.132Z,3.80
2017-11-13T08:56:51.616Z,5.00
2017-11-13T08:59:19.879Z,4.03
2017-11-13T09:01:47.408Z,5.00
2017-11-13T09:04:14.920Z,3.65
2017-11-13T09:06:42.489Z,3.10
2017-11-13T09:09:09.972Z,3.62
2017-11-13T09:11:37.455Z,3.75
2017-11-13T09:14:05.045Z,3.53
2017-11-13T09:16:32.561Z,3.60
2017-11-13T09:19:00.989Z,3.30
2017-11-13T09:21:28.599Z,3.25
2017-11-13T09:23:56.136Z,3.30
2017-11-13T09:26:23.716Z,3.67
2017-11-13T09:28:51.232Z,3.33
2017-11-13T09:31:18.711Z,3.08
2017-11-13T09:33:46.288Z,3.15
2017-11-13T09:36:13.851Z,3.28
2017-11-13T09:38:41.412Z,3.72
2017-11-13T09:41:09.046Z,3.20
2017-11-13T09:43:36.633Z,3.22
2017-11-13T09:46:04.108Z,3.30
2017-11-13T09:48:32.352Z,3.35
2017-11-13T09:50:59.837Z,2.85
2017-11-13T09:53:27.332Z,3.70
2017-11-13T09:55:54.873Z,2.92
2017-11-13T09:58:23.251Z,3.50
2017-11-13T10:00:50.884Z,3.40
2017-11-13T10:03:18.428Z,3.22
2017-11-13T10:05:45.903Z,3.00
2017-11-13T10:08:13.521Z,3.20
2017-11-13T10:10:42.131Z,2.78
2017-11-13T10:13:09.771Z,2.50
2017-11-13T10:15:37.392Z,3.25
2017-11-13T10:18:05.755Z,2.60
2017-11-13T10:20:33.263Z,2.75
2017-11-13T10:23:00.748Z,3.22
2017-11-13T10:25:28.243Z,2.65
2017-11-13T10:27:55.750Z,2.90
2017-11-13T10:30:23.270Z,2.80
2017-11-13T10:32:50.798Z,2.90
2017-11-13T10:35:18.268Z,2.78
2017-11-13T10:37:46.521Z,3.00
2017-11-13T10:40:14.014Z,2.53
2017-11-13T10:42:41.494Z,2.47
2017-11-13T10:45:09.071Z,2.70
2017-11-13T10:47:36.595Z,2.15
2017-11-13T10:50:04.075Z,2.72
2017-11-13T10:52:31.567Z,2.53
2017-11-13T10:54:59.048Z,2.40
2017-11-13T10:57:26.611Z,2.80
2017-11-13T10:59:54.325Z,2.95
2017-11-13T11:02:22.266Z,2.35
2017-11-13T11:04:49.774Z,2.50
2017-11-13T11:07:17.292Z,2.45
2017-11-13T11:09:44.787Z,2.30
2017-11-13T11:12:27.914Z,2.40
2017-11-13T11:14:58.682Z,2.87
2017-11-13T11:17:41.027Z,2.58
2017-11-13T11:20:10.271Z,2.90
2017-11-13T11:22:50.353Z,2.45
2017-11-13T11:25:18.587Z,2.60
2017-11-13T11:27:46.834Z,2.75
2017-11-13T11:30:20.256Z,2.60
2017-11-13T11:32:50.183Z,3.00
2017-11-13T11:35:18.536Z,2.42
2017-11-13T11:38:01.780Z,3.00
2017-11-13T11:40:30.508Z,2.62
2017-11-13T11:42:58.100Z,2.60
2017-11-13T11:45:43.415Z,2.45
2017-11-13T11:48:15.694Z,2.90
2017-11-13T11:50:43.185Z,2.45
2017-11-13T11:53:10.655Z,2.78
2017-11-13T11:55:40.635Z,2.40
2017-11-13T11:58:08.129Z,2.53
2017-11-13T12:00:35.612Z,2.40
2017-11-13T12:03:03.868Z,2.80
2017-11-13T12:05:31.379Z,2.40
2017-11-13T12:07:58.971Z,2.45
2017-11-13T12:10:26.506Z,2.25
2017-11-13T12:12:53.975Z,2.25
2017-11-13T12:15:21.464Z,2.45
2017-11-13T12:17:48.984Z,2.72
2017-11-13T12:20:17.336Z,2.40
2017-11-13T12:22:44.979Z,2.40
2017-11-13T12:25:13.408Z,2.95
2017-11-13T12:27:41.020Z,2.58
2017-11-13T12:30:09.366Z,2.40
2017-11-13T12:32:36.858Z,2.10
2017-11-13T12:35:04.334Z,2.05
2017-11-13T12:37:31.823Z,3.00
2017-11-13T12:39:59.310Z,2.12
2017-11-13T12:42:27.687Z,2.45
2017-11-13T12:44:55.975Z,2.37
2017-11-13T12:47:24.302Z,2.17
2017-11-13T12:49:51.764Z,2.65
2017-11-13T12:52:19.258Z,2.40
2017-11-13T12:54:47.508Z,2.30
2017-11-13T12:57:14.996Z,2.22
2017-11-13T12:59:43.265Z,2.30
2017-11-13T13:02:11.568Z,2.53
2017-11-13T13:04:39.172Z,2.45
2017-11-13T13:07:06.702Z,2.60
2017-11-13T13:09:34.183Z,2.35
2017-11-13T13:12:01.667Z,2.00
2017-11-13T13:14:29.933Z,2.70
2017-11-13T13:16:57.416Z,2.35
2017-11-13T13:19:25.689Z,2.42
2017-11-13T13:21:54.685Z,2.10
2017-11-13T13:24:23.024Z,2.67
2017-11-13T13:26:50.917Z,2.00
2017-11-13T13:29:19.540Z,1.80
2017-11-13T13:31:47.141Z,1.95
2017-11-13T13:34:14.627Z,2.35
2017-11-13T13:36:42.860Z,1.83
2017-11-13T13:39:10.363Z,2.30
2017-11-13T13:41:38.692Z,2.62
2017-11-13T13:44:06.179Z,1.70
2017-11-13T13:46:34.606Z,2.15
2017-11-13T13:49:02.142Z,1.73
2017-11-13T13:51:29.685Z,2.40
2017-11-13T13:53:57.963Z,2.25
2017-11-13T13:56:26.252Z,1.95
2017-11-13T13:58:53.761Z,1.85
2017-11-13T14:01:21.241Z,2.40
2017-11-13T14:03:49.496Z,1.85
2017-11-13T14:06:17.252Z,1.92
2017-11-13T14:08:44.883Z,2.87
2017-11-13T14:11:12.413Z,2.28
2017-11-13T14:13:40.664Z,2.55
2017-11-13T14:16:08.140Z,2.00
2017-11-13T14:18:36.389Z,2.20
2017-11-13T14:21:03.874Z,2.35
2017-11-13T14:23:31.443Z,2.00
2017-11-13T14:25:59.215Z,2.15
2017-11-13T14:28:26.877Z,1.85
2017-11-13T14:30:55.469Z,2.10
2017-11-13T14:33:22.959Z,2.80
2017-11-13T14:35:50.452Z,2.30
2017-11-13T14:38:18.712Z,1.95
2017-11-13T14:40:46.183Z,1.98
2017-11-13T14:43:14.450Z,2.10
2017-11-13T14:45:42.802Z,1.95
2017-11-13T14:48:10.313Z,1.60
2017-11-13T14:50:37.991Z,3.15
2017-11-13T14:53:05.471Z,1.83
2017-11-13T14:55:32.956Z,1.95
2017-11-13T14:58:01.208Z,2.22
2017-11-13T15:00:28.699Z,2.00
2017-11-13T15:02:56.936Z,1.75
2017-11-13T15:05:24.448Z,1.85
2017-11-13T15:07:52.071Z,2.10
2017-11-13T15:10:19.699Z,1.80
2017-11-13T15:12:47.198Z,2.10
2017-11-13T15:15:15.549Z,1.70
2017-11-13T15:17:43.044Z,1.95
2017-11-13T15:20:11.300Z,1.95
2017-11-13T15:22:38.888Z,2.25
2017-11-13T15:25:06.772Z,1.80
2017-11-13T15:27:34.570Z,1.90
2017-11-13T15:30:02.147Z,1.90
2017-11-13T15:32:29.607Z,2.35
2017-11-13T15:34:57.104Z,2.12
2017-11-13T15:37:24.596Z,2.10
2017-11-13T15:39:52.073Z,1.52
2017-11-13T15:42:19.562Z,1.65
2017-11-13T15:44:47.107Z,2.12
2017-11-13T15:47:14.566Z,1.80
2017-11-13T15:49:42.912Z,2.30
2017-11-13T15:52:10.483Z,2.20
2017-11-13T15:54:37.973Z,2.25
2017-11-13T15:57:05.507Z,1.95
2017-11-13T15:59:33.833Z,2.70
2017-11-13T16:02:01.367Z,1.90
2017-11-13T16:04:28.838Z,1.60
2017-11-13T16:06:56.343Z,1.83
2017-11-13T16:09:23.835Z,2.20
2017-11-13T16:11:51.560Z,1.90
2017-11-13T16:14:19.152Z,2.17
2017-11-13T16:16:46.994Z,2.12
2017-11-13T16:19:14.534Z,1.80
2017-11-13T16:21:42.023Z,2.00
2017-11-13T16:24:10.289Z,2.37
2017-11-13T16:26:38.550Z,2.10
2017-11-13T16:29:06.044Z,2.60
2017-11-13T16:31:33.564Z,2.10
2017-11-13T16:34:01.117Z,2.60
2017-11-13T16:36:28.612Z,2.45
2017-11-13T16:38:56.861Z,2.75
2017-11-13T16:41:24.351Z,2.70
2017-11-13T16:43:51.843Z,2.50
2017-11-13T16:46:19.451Z,2.40
2017-11-13T16:48:47.756Z,2.90
2017-11-13T16:51:15.288Z,3.60
2017-11-13T16:53:44.255Z,2.90
2017-11-13T16:56:11.837Z,3.35
2017-11-13T16:58:40.171Z,3.00
2017-11-13T17:01:07.664Z,3.60
2017-11-13T17:03:35.925Z,3.12
2017-11-13T17:06:03.403Z,2.92
2017-11-13T17:08:31.690Z,3.00
2017-11-13T17:10:59.931Z,2.17
2017-11-13T17:13:28.244Z,3.12
2017-11-13T17:15:56.588Z,3.05
2017-11-13T17:18:24.451Z,2.90
2017-11-13T17:20:52.289Z,2.70
2017-11-13T17:23:19.837Z,2.45
2017-11-13T17:25:47.312Z,4.15
2017-11-13T17:28:14.791Z,3.00
2017-11-13T17:30:42.288Z,2.70
2017-11-13T17:33:09.872Z,3.58
2017-11-13T17:35:37.397Z,3.05
2017-11-13T17:38:04.943Z,2.90
2017-11-13T17:40:32.429Z,3.10
2017-11-13T17:43:00.243Z,2.87
2017-11-13T17:45:28.487Z,3.58
2017-11-13T17:47:56.005Z,2.83
2017-11-13T17:50:24.339Z,3.22
2017-11-13T17:52:51.841Z,2.97
2017-11-13T17:55:19.395Z,3.40
2017-11-13T17:57:47.682Z,3.80
2017-11-13T18:00:15.940Z,3.50
2017-11-13T18:02:44.186Z,3.70
2017-11-13T18:05:11.688Z,3.17
2017-11-13T18:07:39.248Z,4.03
2017-11-13T18:10:06.876Z,3.28
2017-11-13T18:12:34.743Z,3.65
2017-11-13T18:15:02.365Z,3.58
2017-11-13T18:17:29.895Z,3.40
2017-11-13T18:19:58.133Z,3.47
2017-11-13T18:22:25.645Z,3.40
2017-11-13T18:24:53.136Z,3.00
2017-11-13T18:27:20.688Z,3.65
2017-11-13T18:29:48.243Z,3.37
2017-11-13T18:32:15.815Z,4.25
2017-11-13T18:34:43.326Z,3.30
2017-11-13T18:37:11.057Z,3.80
2017-11-13T18:39:38.549Z,3.30
2017-11-13T18:42:06.030Z,2.80
2017-11-13T18:44:33.588Z,3.72
2017-11-13T18:47:01.169Z,3.40
2017-11-13T18:49:28.643Z,3.50
2017-11-13T18:51:56.960Z,3.80
2017-11-13T18:54:24.839Z,3.87
2017-11-13T18:56:52.321Z,3.60
2017-11-13T18:59:19.988Z,3.15
2017-11-13T19:01:47.927Z,2.83
2017-11-13T19:04:15.527Z,3.22
2017-11-13T19:06:42.991Z,3.60
2017-11-13T19:09:11.256Z,3.65
2017-11-13T19:11:38.772Z,2.90
2017-11-13T19:14:06.263Z,3.03
2017-11-13T19:16:33.776Z,2.70
2017-11-13T19:19:01.910Z,2.80
2017-11-13T19:21:30.175Z,3.25
2017-11-13T19:23:57.680Z,3.25
2017-11-13T19:26:25.167Z,2.70
2017-11-13T19:28:52.710Z,2.43
2017-11-13T19:31:20.200Z,2.50
2017-11-13T19:33:48.584Z,2.67
2017-11-13T19:36:16.079Z,2.80
2017-11-13T19:38:44.666Z,2.58
2017-11-13T19:41:12.306Z,2.12
2017-11-13T19:43:40.613Z,3.55
2017-11-13T19:46:08.130Z,2.37
2017-11-13T19:48:36.396Z,2.80
2017-11-13T19:51:03.901Z,2.70
2017-11-13T19:53:31.457Z,2.70
2017-11-13T19:55:59.010Z,2.73
2017-11-13T19:58:26.831Z,2.58
2017-11-13T20:00:54.479Z,2.20
2017-11-13T20:03:22.810Z,2.40
2017-11-13T20:05:51.310Z,2.30
2017-11-13T20:08:18.871Z,2.20
2017-11-13T20:10:46.392Z,2.40
2017-11-13T20:13:15.028Z,2.85
2017-11-13T20:15:42.528Z,2.80
2017-11-13T20:18:10.776Z,2.53
2017-11-13T20:20:38.286Z,2.30
2017-11-13T20:23:05.809Z,2.65
2017-11-13T20:25:33.292Z,2.47
2017-11-13T20:28:00.801Z,2.40
2017-11-13T20:30:28.304Z,3.17
2017-11-13T20:32:55.859Z,2.22
2017-11-13T20:35:24.369Z,2.30
2017-11-13T20:37:52.136Z,2.33
2017-11-13T20:40:19.800Z,2.50
2017-11-13T20:42:47.323Z,1.85
2017-11-13T20:45:16.234Z,2.60
2017-11-13T20:47:43.720Z,2.42
2017-11-13T20:50:11.978Z,2.83
2017-11-13T20:52:40.169Z,2.12
2017-11-13T20:55:07.680Z,2.25
2017-11-13T20:57:35.967Z,2.20
2017-11-13T21:00:03.691Z,2.20
2017-11-13T21:02:31.507Z,2.05
2017-11-13T21:05:00.200Z,2.40
2017-11-13T21:07:27.910Z,2.00
2017-11-13T21:09:55.518Z,2.60
2017-11-13T21:12:23.012Z,2.17
2017-11-13T21:14:50.509Z,2.12
2017-11-13T21:17:18.052Z,2.00
2017-11-13T21:19:46.725Z,2.20
2017-11-13T21:22:14.348Z,2.70
2017-11-13T21:24:41.840Z,2.42
2017-11-13T21:27:10.123Z,2.53
2017-11-13T21:29:38.395Z,2.50
2017-11-13T21:32:05.897Z,2.30
2017-11-13T21:34:33.386Z,2.40
2017-11-13T21:37:02.516Z,3.15
2017-11-13T21:39:30.772Z,2.80
2017-11-13T21:41:58.280Z,2.55
2017-11-13T21:44:25.855Z,2.45
2017-11-13T21:46:53.336Z,3.00
2017-11-13T21:49:21.767Z,2.50
2017-11-13T21:51:49.305Z,3.50
2017-11-13T21:54:17.576Z,2.70
2017-11-13T21:56:45.856Z,2.97
2017-11-13T21:59:14.134Z,2.90
2017-11-13T22:01:41.875Z,2.53
2017-11-13T22:04:10.559Z,2.28
2017-11-13T22:06:38.214Z,2.20
2017-11-13T22:09:05.847Z,2.50
2017-11-13T22:11:33.322Z,2.40
2017-11-13T22:14:00.861Z,2.85
2017-11-13T22:16:28.346Z,2.45
2017-11-13T22:18:55.929Z,2.30
2017-11-13T22:21:24.257Z,2.53
2017-11-13T22:23:51.852Z,2.80
2017-11-13T22:26:20.343Z,2.58
2017-11-13T22:28:48.643Z,2.80
2017-11-13T22:31:16.214Z,3.00
2017-11-13T22:33:43.708Z,2.45
2017-11-13T22:36:11.191Z,2.53
2017-11-13T22:38:39.439Z,2.90
2017-11-13T22:41:07.048Z,3.00
2017-11-13T22:43:34.587Z,2.40
2017-11-13T22:46:03.146Z,3.25
2017-11-13T22:48:30.728Z,3.08
2017-11-13T22:50:58.971Z,2.22
2017-11-13T22:53:26.459Z,2.90
2017-11-13T22:55:54.720Z,3.00
2017-11-13T22:58:22.226Z,2.85
2017-11-13T23:00:49.895Z,2.58
2017-11-13T23:03:17.903Z,2.20
2017-11-13T23:05:45.726Z,3.03
2017-11-13T23:08:13.238Z,3.03
2017-11-13T23:10:41.484Z,2.60
2017-11-13T23:13:08.977Z,2.90
2017-11-13T23:15:37.245Z,2.90
2017-11-13T23:18:05.497Z,2.92
2017-11-13T23:20:32.977Z,2.40
2017-11-13T23:23:01.383Z,2.40
2017-11-13T23:25:28.865Z,2.60
2017-11-13T23:27:56.399Z,2.58
2017-11-13T23:30:23.878Z,2.87
2017-11-13T23:32:51.356Z,3.45
2017-11-13T23:35:18.847Z,2.87
2017-11-13T23:37:47.175Z,2.67
2017-11-13T23:40:14.732Z,2.70
2017-11-13T23:42:42.271Z,2.78
2017-11-13T23:45:09.772Z,2.75
2017-11-13T23:47:37.491Z,3.03
2017-11-13T23:50:04.976Z,3.05
2017-11-13T23:52:32.700Z,3.35
2017-11-13T23:55:00.395Z,3.30
2017-11-13T23:57:28.146Z,3.40
2017-11-13T23:59:55.741Z,3.20
